Willow Grove, Kentucky
Current Conditions -  °F | °C
As of 4:35 PM on Saturday 22 Nov 2014 (Local Time) from KFGX Reporting Station
Scattered Clouds Scattered Clouds  
Wind Chill: 57°   Ceiling: Unl
Heat Index: 57°   Visibility: 10mi
Dew Point: 33°   Wind: 9mph
Humidity: 41%   Direction: 200°SSW
Pressure: 30.16"   Gusts: 16mph
Location:  38.7475°N, 84.1516°W
Report Text: KFGX 222135Z AUTO 20008G14KT 10SM SCT080 SCT110 14/01 A3016 RMK AO2 T01400008
Loading
Personal Weather Stations






























Interactive Weather Map New forecast layout! Learn more

10-Day Weather Forecast

Advertisements
Track Severe Weather on mobile